Velikie Luki, Russia
Current Conditions -  °F | °C
As of 8:00 PM on Sunday 23 Nov 2014 (Local Time) from UMII Reporting Station
Few Clouds Few Clouds  
Wind Chill: 21°   Ceiling: Unl
Heat Index: 27°   Visibility: 4mi
Dew Point: 21°   Wind: 4mph
Humidity: 80%   Direction: 20°NNE
Pressure: 30.5"   Gusts: NA
Location:  56.34°N, 30.53°E
Report Text: UMII 231700Z 02002MPS P6000 FEW040 M03/M06 Q1033 TEMPO 2000 BRBKN005
Loading
Personal Weather Stations






























Interactive Weather Map New forecast layout! Learn more

10-Day Weather Forecast

Advertisements
Track Severe Weather on mobile